createdAt,value
2022-09-04T00:00:39.774Z,0.10
2022-09-04T00:01:40.076Z,0.10
2022-09-04T00:02:39.748Z,0.10
2022-09-04T00:03:39.990Z,0.10
2022-09-04T00:04:39.825Z,0.10
2022-09-04T00:05:39.712Z,0.20
2022-09-04T00:06:39.704Z,0.10
2022-09-04T00:07:39.687Z,0.10
2022-09-04T00:08:39.670Z,0.10
2022-09-04T00:09:39.660Z,0.20
2022-09-04T00:10:39.644Z,0.20
2022-09-04T00:11:39.632Z,0.10
2022-09-04T00:12:39.618Z,0.10
2022-09-04T00:13:39.606Z,0.10
2022-09-04T00:14:39.592Z,0.10
2022-09-04T00:15:39.580Z,0.20
2022-09-04T00:16:39.689Z,0.20
2022-09-04T00:17:39.556Z,0.10
2022-09-04T00:18:39.540Z,0.10
2022-09-04T00:19:39.529Z,0.20
2022-09-04T00:20:39.514Z,0.20
2022-09-04T00:21:39.503Z,0.20
2022-09-04T00:22:39.491Z,0.20
2022-09-04T00:23:39.478Z,0.20
2022-09-04T00:24:39.466Z,0.20
2022-09-04T00:25:39.451Z,0.20
2022-09-04T00:26:39.440Z,0.20
2022-09-04T00:27:39.426Z,0.20
2022-09-04T00:28:39.413Z,0.20
2022-09-04T00:29:39.400Z,0.20
2022-09-04T00:30:39.463Z,0.20
2022-09-04T00:31:39.375Z,0.10
2022-09-04T00:32:39.363Z,0.20
2022-09-04T00:33:39.349Z,0.20
2022-09-04T00:34:39.336Z,0.20
2022-09-04T00:35:39.420Z,0.20
2022-09-04T00:36:39.312Z,0.20
2022-09-04T00:37:39.298Z,0.10
2022-09-04T00:38:39.286Z,0.10
2022-09-04T00:39:39.319Z,0.20
2022-09-04T00:40:39.259Z,0.20
2022-09-04T00:41:39.248Z,0.20
2022-09-04T00:42:39.234Z,0.20
2022-09-04T00:43:39.221Z,0.20
2022-09-04T00:44:39.207Z,0.20
2022-09-04T00:45:39.262Z,0.20
2022-09-04T00:46:39.182Z,0.20
2022-09-04T00:47:39.170Z,0.20
2022-09-04T00:48:39.155Z,0.20
2022-09-04T00:49:39.144Z,0.20
2022-09-04T00:51:39.116Z,0.20
2022-09-04T00:52:39.102Z,0.20
2022-09-04T00:53:39.090Z,0.20
2022-09-04T00:54:39.088Z,0.20
2022-09-04T00:55:39.067Z,0.20
2022-09-04T00:56:39.049Z,0.20
2022-09-04T00:57:39.037Z,0.20
2022-09-04T00:58:39.023Z,0.20
2022-09-04T00:59:39.010Z,0.20
2022-09-04T01:00:38.995Z,0.20
2022-09-04T01:01:39.190Z,0.20
2022-09-04T01:02:38.970Z,0.20
2022-09-04T01:03:38.957Z,0.20
2022-09-04T01:04:38.943Z,0.20
2022-09-04T01:05:38.933Z,0.10
2022-09-04T01:06:38.917Z,0.20
2022-09-04T01:07:38.905Z,0.20
2022-09-04T01:08:38.891Z,0.20
2022-09-04T01:09:38.879Z,0.20
2022-09-04T01:10:38.864Z,0.10
2022-09-04T01:11:38.854Z,0.20
2022-09-04T01:12:38.839Z,0.20
2022-09-04T01:13:38.826Z,0.20
2022-09-04T01:14:38.812Z,0.20
2022-09-04T01:15:38.800Z,0.20
2022-09-04T01:16:38.854Z,0.20
2022-09-04T01:17:38.774Z,0.20
2022-09-04T01:18:38.760Z,0.20
2022-09-04T01:19:38.747Z,0.20
2022-09-04T01:20:38.735Z,0.20
2022-09-04T01:21:38.720Z,0.10
2022-09-04T01:22:38.708Z,0.20
2022-09-04T01:23:38.693Z,0.20
2022-09-04T01:24:38.680Z,0.20
2022-09-04T01:25:38.667Z,0.20
2022-09-04T01:26:38.653Z,0.20
2022-09-04T01:27:38.641Z,0.10
2022-09-04T01:28:38.626Z,0.10
2022-09-04T01:29:38.616Z,0.20
2022-09-04T01:30:38.600Z,0.20
2022-09-04T01:31:38.647Z,0.20
2022-09-04T01:32:38.573Z,0.20
2022-09-04T01:33:38.561Z,0.20
2022-09-04T01:34:38.547Z,0.20
2022-09-04T01:35:38.534Z,0.20
2022-09-04T01:36:38.520Z,0.10
2022-09-04T01:37:38.508Z,0.10
2022-09-04T01:38:38.494Z,0.20
2022-09-04T01:39:38.572Z,0.20
2022-09-04T01:40:38.467Z,0.20
2022-09-04T01:41:38.820Z,0.20
2022-09-04T01:42:38.441Z,0.10
2022-09-04T01:43:38.428Z,0.20
2022-09-04T01:44:38.414Z,0.20
2022-09-04T01:45:38.473Z,0.20
2022-09-04T01:46:38.387Z,0.20
2022-09-04T01:47:38.376Z,0.10
2022-09-04T01:48:38.361Z,0.20
2022-09-04T01:49:38.350Z,0.20
2022-09-04T01:50:38.333Z,0.10
2022-09-04T01:51:38.322Z,0.10
2022-09-04T01:52:38.307Z,0.10
2022-09-04T01:53:38.294Z,0.20
2022-09-04T01:54:38.281Z,0.20
2022-09-04T01:55:38.271Z,0.20
2022-09-04T01:56:38.254Z,0.20
2022-09-04T01:57:38.242Z,0.20
2022-09-04T01:58:38.227Z,0.20
2022-09-04T01:59:38.215Z,0.20
2022-09-04T02:00:38.202Z,0.20
2022-09-04T02:01:38.189Z,0.10
2022-09-04T02:02:38.230Z,0.10
2022-09-04T02:03:38.162Z,0.10
2022-09-04T02:04:38.149Z,0.20
2022-09-04T02:05:38.134Z,0.20
2022-09-04T02:06:38.124Z,0.20
2022-09-04T02:07:38.108Z,0.20
2022-09-04T02:08:38.095Z,0.20
2022-09-04T02:09:38.086Z,0.20
2022-09-04T02:10:38.071Z,0.20
2022-09-04T02:11:38.055Z,0.20
2022-09-04T02:12:38.063Z,0.20
2022-09-04T02:13:38.028Z,0.20
2022-09-04T02:14:38.015Z,0.20
2022-09-04T02:15:38.002Z,0.20
2022-09-04T02:16:38.091Z,0.20
2022-09-04T02:17:37.977Z,0.20
2022-09-04T02:18:37.964Z,0.20
2022-09-04T02:19:37.948Z,0.20
2022-09-04T02:20:37.937Z,0.20
2022-09-04T02:21:37.925Z,0.20
2022-09-04T02:22:37.910Z,0.20
2022-09-04T02:23:37.895Z,0.20
2022-09-04T02:24:37.886Z,0.20
2022-09-04T02:25:37.871Z,0.20
2022-09-04T02:26:37.857Z,0.20
2022-09-04T02:27:37.842Z,0.20
2022-09-04T02:28:37.829Z,0.10
2022-09-04T02:29:37.816Z,0.20
2022-09-04T02:30:37.805Z,0.20
2022-09-04T02:31:37.839Z,0.20
2022-09-04T02:32:37.783Z,0.20
2022-09-04T02:33:37.762Z,0.30
2022-09-04T02:34:37.751Z,0.20
2022-09-04T02:35:37.735Z,0.20
2022-09-04T02:36:37.725Z,0.20
2022-09-04T02:37:37.709Z,0.20
2022-09-04T02:38:37.698Z,0.20
2022-09-04T02:39:37.733Z,0.20
2022-09-04T02:40:37.679Z,0.20
2022-09-04T02:41:37.656Z,0.30
2022-09-04T02:42:37.644Z,0.20
2022-09-04T02:43:37.632Z,0.20
2022-09-04T02:44:37.617Z,0.20
2022-09-04T02:45:37.603Z,0.20
2022-09-04T02:46:42.563Z,0.30
2022-09-04T02:47:37.579Z,0.20
2022-09-04T02:48:37.566Z,0.30
2022-09-04T02:49:37.558Z,0.20
2022-09-04T02:50:37.539Z,0.20
2022-09-04T02:51:37.524Z,0.20
2022-09-04T02:52:37.518Z,0.20
2022-09-04T02:53:37.501Z,0.20
2022-09-04T02:54:37.484Z,0.20
2022-09-04T02:55:37.477Z,0.20
2022-09-04T02:56:37.459Z,0.20
2022-09-04T02:57:37.444Z,0.20
2022-09-04T02:58:37.431Z,0.20
2022-09-04T02:59:37.419Z,0.10
2022-09-04T03:00:37.438Z,0.20
2022-09-04T03:01:37.448Z,0.20
2022-09-04T03:02:37.380Z,0.20
2022-09-04T03:03:37.364Z,0.20
2022-09-04T03:04:37.357Z,0.20
2022-09-04T03:05:37.339Z,0.10
2022-09-04T03:06:37.327Z,0.20
2022-09-04T03:07:37.312Z,0.10
2022-09-04T03:08:37.299Z,0.10
2022-09-04T03:09:37.285Z,0.20
2022-09-04T03:10:37.273Z,0.10
2022-09-04T03:11:37.260Z,0.10
2022-09-04T03:12:37.248Z,0.20
2022-09-04T03:13:37.237Z,0.10
2022-09-04T03:14:37.223Z,0.10
2022-09-04T03:15:37.206Z,0.10
2022-09-04T03:16:37.252Z,0.10
2022-09-04T03:17:37.180Z,0.10
2022-09-04T03:18:37.167Z,0.10
2022-09-04T03:19:37.272Z,0.10
2022-09-04T03:20:37.140Z,0.10
2022-09-04T03:21:37.126Z,0.10
2022-09-04T03:22:37.114Z,0.10
2022-09-04T03:23:37.099Z,0.10
2022-09-04T03:24:37.087Z,0.10
2022-09-04T03:25:37.085Z,0.10
2022-09-04T03:26:37.062Z,0.10
2022-09-04T03:27:37.046Z,0.10
2022-09-04T03:28:37.036Z,0.10
2022-09-04T03:29:37.024Z,0.10
2022-09-04T03:30:37.008Z,0.10
2022-09-04T03:31:37.073Z,0.10
2022-09-04T03:32:36.982Z,0.10
2022-09-04T03:33:36.968Z,0.10
2022-09-04T03:34:36.955Z,0.10
2022-09-04T03:35:36.941Z,0.10
2022-09-04T03:36:36.929Z,0.10
2022-09-04T03:37:36.918Z,0.20
2022-09-04T03:38:36.904Z,0.10
2022-09-04T03:39:36.947Z,0.10
2022-09-04T03:40:36.876Z,0.10
2022-09-04T03:41:36.863Z,0.10
2022-09-04T03:42:36.850Z,0.10
2022-09-04T03:43:36.835Z,0.10
2022-09-04T03:44:36.823Z,0.10
2022-09-04T03:45:36.809Z,0.10
2022-09-04T03:46:36.896Z,0.10
2022-09-04T03:47:36.782Z,0.10
2022-09-04T03:48:36.771Z,0.10
2022-09-04T03:49:36.754Z,0.10
2022-09-04T03:50:36.742Z,0.10
2022-09-04T03:51:36.729Z,0.10
2022-09-04T03:52:36.716Z,0.20
2022-09-04T03:53:36.704Z,0.20
2022-09-04T03:54:36.690Z,0.20
2022-09-04T03:55:36.676Z,0.20
2022-09-04T03:56:36.665Z,0.20
2022-09-04T03:57:36.654Z,0.20
2022-09-04T03:58:36.638Z,0.20
2022-09-04T03:59:38.066Z,0.10
2022-09-04T04:00:36.661Z,0.10
2022-09-04T04:01:36.598Z,0.10
2022-09-04T04:02:36.662Z,0.10
2022-09-04T04:03:36.569Z,0.10
2022-09-04T04:04:36.557Z,0.10
2022-09-04T04:05:36.544Z,0.10
2022-09-04T04:06:36.536Z,0.10
2022-09-04T04:07:36.517Z,0.10
2022-09-04T04:08:36.503Z,0.10
2022-09-04T04:09:36.489Z,0.20
2022-09-04T04:10:36.478Z,0.10
2022-09-04T04:11:41.373Z,0.10
2022-09-04T04:12:36.453Z,0.10
2022-09-04T04:13:36.439Z,0.10
2022-09-04T04:14:36.428Z,0.10
2022-09-04T04:15:36.414Z,0.10
2022-09-04T04:16:36.469Z,0.10
2022-09-04T04:17:36.386Z,0.10
2022-09-04T04:18:36.375Z,0.10
2022-09-04T04:19:36.364Z,0.10
2022-09-04T04:20:36.349Z,0.10
2022-09-04T04:21:36.338Z,0.10
2022-09-04T04:22:36.326Z,0.10
2022-09-04T04:23:36.342Z,0.10
2022-09-04T04:24:36.306Z,0.20
2022-09-04T04:25:36.293Z,0.10
2022-09-04T04:26:36.273Z,0.10
2022-09-04T04:27:36.261Z,0.20
2022-09-04T04:28:36.252Z,0.10
2022-09-04T04:29:36.235Z,0.10
2022-09-04T04:30:36.222Z,0.10
2022-09-04T04:31:36.288Z,0.10
2022-09-04T04:32:36.197Z,0.20
2022-09-04T04:33:36.184Z,0.10
2022-09-04T04:34:36.172Z,0.10
2022-09-04T04:35:36.157Z,0.10
2022-09-04T04:36:36.147Z,0.10
2022-09-04T04:37:36.133Z,0.10
2022-09-04T04:38:36.121Z,0.10
2022-09-04T04:39:36.188Z,0.10
2022-09-04T04:40:36.096Z,1.39
2022-09-04T04:41:36.083Z,0.10
2022-09-04T04:42:36.070Z,0.10
2022-09-04T04:43:36.058Z,0.10
2022-09-04T04:44:36.045Z,0.10
2022-09-04T04:45:36.032Z,0.10
2022-09-04T04:46:36.117Z,0.10
2022-09-04T04:47:36.006Z,0.10
2022-09-04T04:48:35.994Z,0.10
2022-09-04T04:49:35.980Z,0.10
2022-09-04T04:50:35.968Z,0.30
2022-09-04T04:52:35.943Z,0.10
2022-09-04T04:53:35.929Z,0.10
2022-09-04T04:54:35.918Z,0.10
2022-09-04T04:55:35.908Z,0.10
2022-09-04T04:56:35.892Z,0.10
2022-09-04T04:57:35.878Z,0.10
2022-09-04T04:58:35.866Z,0.10
2022-09-04T04:59:35.853Z,0.10
2022-09-04T05:00:35.841Z,0.30
2022-09-04T05:01:35.908Z,1.29
2022-09-04T05:02:35.929Z,5.80
2022-09-04T05:03:35.801Z,5.69
2022-09-04T05:04:35.789Z,6.80
2022-09-04T05:05:35.776Z,7.69
2022-09-04T05:06:35.764Z,7.80
2022-09-04T05:07:35.748Z,7.30
2022-09-04T05:08:35.737Z,6.80
2022-09-04T05:09:35.723Z,6.90
2022-09-04T05:10:35.712Z,7.30
2022-09-04T05:11:35.698Z,7.09
2022-09-04T05:12:35.689Z,6.50
2022-09-04T05:13:35.672Z,6.80
2022-09-04T05:14:35.660Z,6.59
2022-09-04T05:15:43.816Z,6.00
2022-09-04T05:16:35.685Z,6.40
2022-09-04T05:17:35.620Z,5.90
2022-09-04T05:18:35.609Z,5.30
2022-09-04T05:19:35.598Z,4.80
2022-09-04T05:20:35.585Z,4.50
2022-09-04T05:21:35.570Z,4.50
2022-09-04T05:22:35.563Z,4.50
2022-09-04T05:23:35.545Z,4.09
2022-09-04T05:24:35.532Z,4.40
2022-09-04T05:25:35.519Z,4.30
2022-09-04T05:26:35.507Z,3.79
2022-09-04T05:27:35.495Z,3.90
2022-09-04T05:28:35.481Z,3.90
2022-09-04T05:29:35.468Z,3.70
2022-09-04T05:30:35.460Z,4.19
2022-09-04T05:31:38.020Z,4.09
2022-09-04T05:32:35.435Z,4.09
2022-09-04T05:33:35.417Z,4.30
2022-09-04T05:34:35.407Z,4.50
2022-09-04T05:35:35.790Z,4.69
2022-09-04T05:36:35.380Z,4.90
2022-09-04T05:37:35.372Z,4.90
2022-09-04T05:38:35.355Z,4.59
2022-09-04T05:39:35.400Z,4.50
2022-09-04T05:40:35.338Z,4.40
2022-09-04T05:41:35.316Z,4.59
2022-09-04T05:42:35.303Z,4.40
2022-09-04T05:43:35.290Z,4.50
2022-09-04T05:44:35.279Z,5.09
2022-09-04T05:45:35.266Z,4.90
2022-09-04T05:46:35.336Z,4.80
2022-09-04T05:47:35.237Z,4.80
2022-09-04T05:48:35.226Z,4.09
2022-09-04T05:49:35.211Z,3.20
2022-09-04T05:50:35.199Z,3.09
2022-09-04T05:51:36.474Z,3.00
2022-09-04T05:52:35.172Z,3.29
2022-09-04T05:53:35.162Z,3.20
2022-09-04T05:54:35.147Z,2.90
2022-09-04T05:55:35.133Z,2.90
2022-09-04T05:56:35.127Z,2.59
2022-09-04T05:57:35.107Z,3.00
2022-09-04T05:58:35.093Z,2.79
2022-09-04T05:59:35.079Z,2.90
2022-09-04T06:00:35.067Z,3.09
2022-09-04T06:01:35.091Z,3.29
2022-09-04T06:02:35.080Z,3.40
2022-09-04T06:03:35.026Z,3.70
2022-09-04T06:04:35.014Z,3.90
2022-09-04T06:05:34.999Z,3.79
2022-09-04T06:06:34.987Z,3.59
2022-09-04T06:07:34.973Z,3.79
2022-09-04T06:08:34.963Z,3.70
2022-09-04T06:09:34.945Z,3.70
2022-09-04T06:10:34.936Z,3.79
2022-09-04T06:11:34.923Z,4.19
2022-09-04T06:12:34.909Z,4.09
2022-09-04T06:13:34.896Z,4.19
2022-09-04T06:14:34.885Z,4.40
2022-09-04T06:15:34.874Z,4.09
2022-09-04T06:16:34.857Z,5.00
2022-09-04T06:17:34.850Z,4.19
2022-09-04T06:18:34.834Z,4.40
2022-09-04T06:19:34.817Z,4.59
2022-09-04T06:20:34.807Z,4.69
2022-09-04T06:21:34.792Z,4.90
2022-09-04T06:22:34.782Z,4.90
2022-09-04T06:23:34.768Z,5.09
2022-09-04T06:24:34.752Z,4.90
2022-09-04T06:25:34.742Z,4.80
2022-09-04T06:26:34.731Z,4.80
2022-09-04T06:27:35.422Z,4.80
2022-09-04T06:28:34.700Z,5.50
2022-09-04T06:29:34.690Z,5.50
2022-09-04T06:30:34.676Z,4.50
2022-09-04T06:31:34.737Z,4.80
2022-09-04T06:32:34.648Z,5.00
2022-09-04T06:33:34.636Z,6.19
2022-09-04T06:34:34.622Z,6.19
2022-09-04T06:35:34.610Z,6.30
2022-09-04T06:36:34.596Z,7.59
2022-09-04T06:37:34.589Z,8.19
2022-09-04T06:38:34.570Z,8.50
2022-09-04T06:39:34.679Z,9.19
2022-09-04T06:40:34.545Z,8.89
2022-09-04T06:41:34.532Z,8.10
2022-09-04T06:42:34.520Z,7.80
2022-09-04T06:43:34.507Z,7.40
2022-09-04T06:44:34.492Z,8.30
2022-09-04T06:45:34.481Z,8.50
2022-09-04T06:46:34.597Z,8.60
2022-09-04T06:47:34.458Z,8.39
2022-09-04T06:48:34.441Z,7.90
2022-09-04T06:49:34.431Z,8.19
2022-09-04T06:50:34.418Z,9.60
2022-09-04T06:51:34.405Z,9.50
2022-09-04T06:52:34.399Z,8.30
2022-09-04T06:53:34.381Z,8.80
2022-09-04T06:54:34.366Z,9.30
2022-09-04T06:55:34.354Z,10.00
2022-09-04T06:56:34.344Z,10.69
2022-09-04T06:57:34.326Z,10.10
2022-09-04T06:58:34.312Z,10.50
2022-09-04T06:59:34.302Z,9.60
2022-09-04T07:00:34.286Z,11.80
2022-09-04T07:01:34.398Z,10.50
2022-09-04T07:02:34.372Z,11.39
2022-09-04T07:03:34.249Z,11.00
2022-09-04T07:04:34.236Z,11.80
2022-09-04T07:05:34.223Z,13.10
2022-09-04T07:06:34.210Z,12.39
2022-09-04T07:07:34.199Z,12.19
2022-09-04T07:08:34.185Z,12.60
2022-09-04T07:09:34.176Z,11.89
2022-09-04T07:10:34.158Z,12.30
2022-09-04T07:11:34.148Z,12.89
2022-09-04T07:12:34.133Z,11.69
2022-09-04T07:13:34.121Z,15.30
2022-09-04T07:14:34.107Z,13.80
2022-09-04T07:15:34.157Z,16.29
2022-09-04T07:16:34.085Z,15.60
2022-09-04T07:17:34.071Z,14.30
2022-09-04T07:18:34.058Z,18.10
2022-09-04T07:19:34.046Z,17.50
2022-09-04T07:20:34.031Z,19.10
2022-09-04T07:21:34.019Z,18.10
2022-09-04T07:22:34.006Z,17.79
2022-09-04T07:23:33.994Z,17.79
2022-09-04T07:24:33.979Z,17.60
2022-09-04T07:25:33.969Z,15.50
2022-09-04T07:26:33.954Z,14.00
2022-09-04T07:27:33.943Z,11.89
2022-09-04T07:28:33.932Z,11.80
2022-09-04T07:29:33.921Z,12.19
2022-09-04T07:30:33.904Z,13.50
2022-09-04T07:31:33.935Z,14.60
2022-09-04T07:32:33.881Z,14.19
2022-09-04T07:33:33.868Z,17.10
2022-09-04T07:34:33.856Z,16.39
2022-09-04T07:35:33.847Z,16.60
2022-09-04T07:36:33.831Z,18.89
2022-09-04T07:37:33.820Z,19.70
2022-09-04T07:38:33.807Z,21.20
2022-09-04T07:39:33.950Z,21.20
2022-09-04T07:40:33.782Z,22.29
2022-09-04T07:41:33.770Z,22.89
2022-09-04T07:42:33.757Z,23.00
2022-09-04T07:43:33.748Z,24.79
2022-09-04T07:44:33.733Z,24.39
2022-09-04T07:45:33.723Z,24.39
2022-09-04T07:46:33.834Z,24.89
2022-09-04T07:47:33.699Z,26.29
2022-09-04T07:48:33.686Z,27.29
2022-09-04T07:49:33.673Z,26.50
2022-09-04T07:50:33.661Z,26.29
2022-09-04T07:51:33.649Z,28.39
2022-09-04T07:52:33.635Z,28.39
2022-09-04T07:53:33.624Z,27.89
2022-09-04T07:54:33.611Z,28.50
2022-09-04T07:55:33.600Z,29.10
2022-09-04T07:56:33.587Z,28.50
2022-09-04T07:57:33.578Z,29.00
2022-09-04T07:58:33.562Z,28.10
2022-09-04T07:59:33.555Z,27.70
2022-09-04T08:00:33.538Z,28.50
2022-09-04T08:01:36.014Z,28.79
2022-09-04T08:02:35.512Z,29.70
2022-09-04T08:03:33.502Z,30.00
2022-09-04T08:04:33.563Z,28.79
2022-09-04T08:05:33.479Z,28.79
2022-09-04T08:06:33.466Z,30.39
2022-09-04T08:07:33.454Z,27.70
2022-09-04T08:08:33.442Z,28.29
2022-09-04T08:09:33.431Z,30.89
2022-09-04T08:10:33.418Z,31.00
2022-09-04T08:11:33.410Z,27.39
2022-09-04T08:12:33.393Z,29.60
2022-09-04T08:13:33.383Z,28.79
2022-09-04T08:14:33.371Z,30.70
2022-09-04T08:15:35.267Z,29.39
2022-09-04T08:16:33.346Z,28.70
2022-09-04T08:17:33.335Z,27.29
2022-09-04T08:18:33.325Z,28.39
2022-09-04T08:19:33.310Z,28.20
2022-09-04T08:20:33.298Z,31.00
2022-09-04T08:21:33.287Z,32.29
2022-09-04T08:22:33.274Z,31.20
2022-09-04T08:23:33.263Z,32.09
2022-09-04T08:24:33.251Z,31.60
2022-09-04T08:25:33.241Z,31.50
2022-09-04T08:26:33.229Z,30.79
2022-09-04T08:27:33.219Z,30.00
2022-09-04T08:28:33.208Z,30.29
2022-09-04T08:29:33.197Z,31.89
2022-09-04T08:30:33.240Z,31.50
2022-09-04T08:31:33.175Z,30.00
2022-09-04T08:32:38.361Z,30.89
2022-09-04T08:33:33.153Z,29.50
2022-09-04T08:34:33.140Z,29.79
2022-09-04T08:35:33.130Z,28.79
2022-09-04T08:36:33.123Z,29.60
2022-09-04T08:37:33.109Z,28.20
2022-09-04T08:38:33.093Z,29.20
2022-09-04T08:39:33.185Z,28.79
2022-09-04T08:40:33.068Z,28.79
2022-09-04T08:41:33.106Z,28.89
2022-09-04T08:42:33.042Z,29.50
2022-09-04T08:43:33.031Z,29.70
2022-09-04T08:44:33.018Z,30.39
2022-09-04T08:45:33.007Z,29.79
2022-09-04T08:46:33.071Z,30.10
2022-09-04T08:47:32.983Z,30.39
2022-09-04T08:48:32.970Z,30.89
2022-09-04T08:49:32.959Z,31.39
2022-09-04T08:50:32.948Z,30.20
2022-09-04T08:51:32.937Z,28.79
2022-09-04T08:53:32.915Z,28.10
2022-09-04T08:54:32.902Z,28.10
2022-09-04T08:55:32.893Z,27.20
2022-09-04T08:56:32.879Z,28.50
2022-09-04T08:57:32.869Z,26.50
2022-09-04T08:58:34.272Z,27.00
2022-09-04T08:59:32.851Z,27.00
2022-09-04T09:00:32.835Z,24.79
2022-09-04T09:01:32.869Z,24.50
2022-09-04T09:02:32.873Z,24.00
2022-09-04T09:03:32.801Z,22.89
2022-09-04T09:04:32.787Z,22.60
2022-09-04T09:05:32.777Z,21.79
2022-09-04T09:06:32.763Z,21.20
2022-09-04T09:07:32.754Z,22.10
2022-09-04T09:08:32.827Z,22.79
2022-09-04T09:09:32.736Z,24.10
2022-09-04T09:10:32.717Z,23.50
2022-09-04T09:11:32.714Z,24.00
2022-09-04T09:12:37.350Z,23.00
2022-09-04T09:13:32.685Z,23.29
2022-09-04T09:14:32.677Z,23.79
2022-09-04T09:15:32.662Z,23.60
2022-09-04T09:16:32.721Z,24.10
2022-09-04T09:17:34.550Z,24.00
2022-09-04T09:18:32.628Z,23.89
2022-09-04T09:19:32.617Z,23.50
2022-09-04T09:20:32.605Z,24.00
2022-09-04T09:21:32.594Z,22.79
2022-09-04T09:22:32.582Z,22.70
2022-09-04T09:23:32.571Z,22.39
2022-09-04T09:24:32.560Z,22.89
2022-09-04T09:25:32.549Z,22.60
2022-09-04T09:26:32.535Z,22.10
2022-09-04T09:27:32.525Z,22.20
2022-09-04T09:28:32.515Z,21.60
2022-09-04T09:29:32.503Z,21.60
2022-09-04T09:30:32.550Z,21.60
2022-09-04T09:31:32.480Z,21.20
2022-09-04T09:32:32.468Z,20.79
2022-09-04T09:33:32.473Z,21.70
2022-09-04T09:34:32.447Z,21.00
2022-09-04T09:35:32.436Z,17.79
2022-09-04T09:36:32.422Z,18.89
2022-09-04T09:37:32.413Z,18.89
2022-09-04T09:38:32.406Z,18.10
2022-09-04T09:39:32.426Z,20.10
2022-09-04T09:40:32.379Z,22.60
2022-09-04T09:41:32.372Z,22.60
2022-09-04T09:42:32.356Z,22.10
2022-09-04T09:43:32.347Z,22.20
2022-09-04T09:44:32.339Z,21.39
2022-09-04T09:45:32.327Z,21.00
2022-09-04T09:46:32.315Z,19.79
2022-09-04T09:47:32.313Z,21.89
2022-09-04T09:48:32.298Z,20.79
2022-09-04T09:49:32.284Z,19.70
2022-09-04T09:50:32.274Z,20.39
2022-09-04T09:51:32.263Z,20.00
2022-09-04T09:52:32.256Z,21.00
2022-09-04T09:53:32.244Z,20.60
2022-09-04T09:54:32.234Z,20.00
2022-09-04T09:55:32.221Z,19.50
2022-09-04T09:56:32.210Z,19.50
2022-09-04T09:57:33.800Z,20.29
2022-09-04T09:58:32.188Z,19.89
2022-09-04T09:59:32.177Z,20.79
2022-09-04T10:00:32.164Z,20.29
2022-09-04T10:01:32.188Z,20.39
2022-09-04T10:02:32.201Z,20.10
2022-09-04T10:03:32.131Z,20.89
2022-09-04T10:04:34.455Z,20.89
2022-09-04T10:05:32.109Z,19.50
2022-09-04T10:06:32.097Z,19.20
2022-09-04T10:07:32.088Z,19.00
2022-09-04T10:08:36.088Z,19.10
2022-09-04T10:09:32.064Z,20.50
2022-09-04T10:10:32.051Z,20.00
2022-09-04T10:11:32.041Z,19.89
2022-09-04T10:12:32.030Z,20.60
2022-09-04T10:13:32.018Z,20.10
2022-09-04T10:14:32.005Z,21.10
2022-09-04T10:15:31.996Z,21.20
2022-09-04T10:16:32.062Z,21.79
2022-09-04T10:17:31.976Z,22.29
2022-09-04T10:18:31.962Z,22.10
2022-09-04T10:19:31.951Z,21.79
2022-09-04T10:20:31.939Z,21.79
2022-09-04T10:21:31.927Z,21.60
2022-09-04T10:22:31.916Z,21.29
2022-09-04T10:23:31.906Z,21.20
2022-09-04T10:24:31.893Z,22.20
2022-09-04T10:25:31.882Z,21.70
2022-09-04T10:26:32.061Z,21.50
2022-09-04T10:27:31.862Z,21.89
2022-09-04T10:28:31.849Z,20.89
2022-09-04T10:29:31.838Z,21.10
2022-09-04T10:30:31.879Z,20.39
2022-09-04T10:31:31.814Z,19.89
2022-09-04T10:32:31.802Z,19.60
2022-09-04T10:33:31.791Z,20.20
2022-09-04T10:34:31.779Z,19.00
2022-09-04T10:35:31.771Z,19.79
2022-09-04T10:36:31.761Z,19.70
2022-09-04T10:37:31.749Z,19.70
2022-09-04T10:38:31.742Z,20.60
2022-09-04T10:39:31.751Z,20.50
2022-09-04T10:40:31.718Z,20.89
2022-09-04T10:41:31.705Z,21.39
2022-09-04T10:42:31.695Z,21.70
2022-09-04T10:43:31.684Z,22.00
2022-09-04T10:44:31.674Z,21.29
2022-09-04T10:45:31.702Z,21.00
2022-09-04T10:46:31.705Z,20.29
2022-09-04T10:47:31.643Z,20.29
2022-09-04T10:48:31.629Z,20.39
2022-09-04T10:49:31.615Z,20.20
2022-09-04T10:50:31.607Z,21.00
2022-09-04T10:51:31.594Z,20.39
2022-09-04T10:52:31.585Z,20.60
2022-09-04T10:53:31.597Z,20.10
2022-09-04T10:54:31.563Z,20.50
2022-09-04T10:55:31.571Z,19.79
2022-09-04T10:56:31.543Z,20.20
2022-09-04T10:57:31.537Z,19.50
2022-09-04T10:58:31.524Z,19.29
2022-09-04T10:59:31.510Z,19.70
2022-09-04T11:00:31.500Z,19.29
2022-09-04T11:01:31.540Z,19.70
2022-09-04T11:02:31.541Z,19.50
2022-09-04T11:03:31.467Z,19.20
2022-09-04T11:04:31.458Z,19.20
2022-09-04T11:05:31.449Z,18.89
2022-09-04T11:06:31.435Z,19.39
2022-09-04T11:07:31.421Z,20.89
2022-09-04T11:08:31.412Z,19.89
2022-09-04T11:09:31.401Z,19.39
2022-09-04T11:10:31.389Z,19.60
2022-09-04T11:11:31.379Z,19.60
2022-09-04T11:12:31.365Z,19.60
2022-09-04T11:13:31.353Z,19.70
2022-09-04T11:14:31.344Z,19.20
2022-09-04T11:15:31.330Z,20.50
2022-09-04T11:16:31.410Z,19.39
2022-09-04T11:17:31.306Z,20.10
2022-09-04T11:18:31.304Z,20.60
2022-09-04T11:19:31.284Z,20.20
2022-09-04T11:20:31.274Z,20.10
2022-09-04T11:21:31.260Z,19.70
2022-09-04T11:22:31.248Z,19.10
2022-09-04T11:23:31.238Z,19.10
2022-09-04T11:24:31.226Z,19.70
2022-09-04T11:25:31.213Z,20.79
2022-09-04T11:26:31.202Z,19.60
2022-09-04T11:27:31.193Z,20.89
2022-09-04T11:28:31.190Z,20.29
2022-09-04T11:29:31.168Z,20.39
2022-09-04T11:30:31.156Z,20.39
2022-09-04T11:31:31.217Z,20.20
2022-09-04T11:32:31.138Z,19.50
2022-09-04T11:33:31.124Z,19.70
2022-09-04T11:34:31.117Z,19.20
2022-09-04T11:35:31.106Z,19.29
2022-09-04T11:36:31.095Z,19.39
2022-09-04T11:37:31.083Z,19.39
2022-09-04T11:38:31.075Z,19.70
2022-09-04T11:39:31.120Z,21.10
2022-09-04T11:40:31.054Z,19.39
2022-09-04T11:41:31.042Z,19.89
2022-09-04T11:42:31.033Z,19.79
2022-09-04T11:43:31.022Z,19.60
2022-09-04T11:44:31.015Z,19.70
2022-09-04T11:45:31.047Z,19.60
2022-09-04T11:46:30.993Z,20.60
2022-09-04T11:47:30.980Z,20.20
2022-09-04T11:48:30.970Z,19.50
2022-09-04T11:49:30.957Z,17.10
2022-09-04T11:50:30.947Z,17.20
2022-09-04T11:51:30.934Z,16.50
2022-09-04T11:52:30.924Z,19.79
2022-09-04T11:53:30.911Z,18.60
2022-09-04T11:54:30.900Z,18.60
2022-09-04T11:55:30.889Z,18.60
2022-09-04T11:56:30.879Z,18.29
2022-09-04T11:57:30.866Z,18.10
2022-09-04T11:58:30.859Z,17.10
2022-09-04T11:59:30.846Z,17.20
2022-09-04T12:00:30.836Z,17.70
2022-09-04T12:01:30.825Z,17.79
2022-09-04T12:02:30.871Z,17.50
2022-09-04T12:03:30.854Z,17.29
2022-09-04T12:04:30.795Z,16.39
2022-09-04T12:05:30.785Z,16.39
2022-09-04T12:06:30.779Z,16.39
2022-09-04T12:07:38.043Z,15.89
2022-09-04T12:08:30.756Z,16.39
2022-09-04T12:09:30.745Z,16.60
2022-09-04T12:10:30.735Z,16.00
2022-09-04T12:11:30.724Z,16.89
2022-09-04T12:12:30.716Z,15.60
2022-09-04T12:13:31.154Z,16.00
2022-09-04T12:14:30.694Z,13.30
2022-09-04T12:15:30.682Z,13.89
2022-09-04T12:16:30.767Z,12.60
2022-09-04T12:17:30.658Z,15.00
2022-09-04T12:18:30.649Z,14.60
2022-09-04T12:19:30.636Z,15.00
2022-09-04T12:20:30.626Z,14.50
2022-09-04T12:21:30.613Z,14.00
2022-09-04T12:22:30.605Z,14.60
2022-09-04T12:23:30.592Z,14.80
2022-09-04T12:24:30.582Z,11.60
2022-09-04T12:25:30.569Z,14.69
2022-09-04T12:26:30.559Z,15.00
2022-09-04T12:27:30.546Z,12.00
2022-09-04T12:28:30.537Z,11.10
2022-09-04T12:29:30.524Z,11.10
2022-09-04T12:30:30.512Z,14.00
2022-09-04T12:31:30.535Z,15.39
2022-09-04T12:32:30.490Z,13.69
2022-09-04T12:33:30.475Z,14.39
2022-09-04T12:34:30.464Z,13.80
2022-09-04T12:35:32.021Z,13.10
2022-09-04T12:36:30.440Z,12.10
2022-09-04T12:37:30.426Z,13.00
2022-09-04T12:38:30.418Z,13.80
2022-09-04T12:39:30.426Z,13.50
2022-09-04T12:40:30.394Z,14.10
2022-09-04T12:41:30.382Z,13.30
2022-09-04T12:42:30.372Z,13.39
2022-09-04T12:43:30.360Z,12.80
2022-09-04T12:44:30.349Z,14.30
2022-09-04T12:45:30.375Z,14.50
2022-09-04T12:46:30.328Z,14.69
2022-09-04T12:47:31.411Z,14.19
2022-09-04T12:48:30.304Z,13.50
2022-09-04T12:49:30.293Z,13.30
2022-09-04T12:50:30.286Z,12.30
2022-09-04T12:51:30.271Z,12.39
2022-09-04T12:52:30.261Z,15.60
2022-09-04T12:54:30.238Z,13.30
2022-09-04T12:55:33.333Z,13.89
2022-09-04T12:56:30.216Z,12.60
2022-09-04T12:57:30.204Z,15.69
2022-09-04T12:58:30.192Z,15.60
2022-09-04T12:59:30.178Z,12.89
2022-09-04T13:00:31.657Z,12.60
2022-09-04T13:01:30.293Z,14.60
2022-09-04T13:02:30.265Z,13.69
2022-09-04T13:03:30.133Z,14.30
2022-09-04T13:04:30.122Z,13.69
2022-09-04T13:05:30.112Z,13.69
2022-09-04T13:06:30.101Z,13.50
2022-09-04T13:07:30.090Z,13.00
2022-09-04T13:08:30.079Z,12.80
2022-09-04T13:09:30.068Z,13.19
2022-09-04T13:10:30.055Z,13.30